X  Stänga Metar väderdata för luftfart     EBBR Brussels Airport
Temperatur
10°C Temperatur
3°C Daggpunkt
62% Fuktighet



Vind
11 KM/T
7 MPH
3 M/S
6 KTS



320°
NV
Nuvarande omständigheter

Delvis molnigt Delvis molnigt
Tryck 1021 (hPa) - 30.15 (inHg)
Synlighet 6 (mil) - 9.7 (km)
Flygplats
Flygplatskod EBBR

Plats: Brussels Airport
Distans: 14 (km)

Metar:
EBBR 181320Z 32006KT 280V360 9999 FEW040 10/03 Q1021 NOSIG

Tid: 18-04-2024 15:20 CEST